首页
METAR-TAF:

METAR-TAF

机场 :

Mankato, 明尼蘇達州, 美国

纬度: 44-13N, 经度: 093-55W, 海拔: 311米

当前天气观测

该预报发布于50分钟前的06:56 UTC
风速6节,风向
温度 3°C
湿度 93%
气压 1015 hPa
能見度: 11.3公里
阴天层高于6000英尺
小雨

METAR: KMKT 170656Z AUTO 19006KT 7SM -RA OVC060 03/02 A2996 RMK AO2 RAB09 SLP155 T00330017

时间: 01:46 (07:46 UTC)

预报

该预报发布于2小时和10分钟前的05:36 UTC
预报有效从17日的 06点(UTC)到 18日的 06点(UTC)
风速10节,风向
能見度: 10公里
阴天层高于7000英尺
从 17日的 0700点(UTC)
风速8节,风向西南
能見度: 9.7公里
阴天层高于3500英尺
小雨
从 17日的 1100点(UTC)
风速10节,风向西北
能見度: 10公里
阴天层高于2500英尺
从 18日的 0100点(UTC)
风速4节,风向西
能見度: 10公里
散云层高于2000英尺

TAF: KMKT 170536Z 1706/1806 18010KT P6SM OVC070 FM170700 22008KT 6SM -RA OVC035 FM171100 31010KT P6SM OVC025 FM180100 27004KT P6SM SCT020

超过4000个机场的气象观测和天气预报(METAR&TAF报告)。

可查询的气象台以黄色和红色小点在地图上表示。

将鼠标移到小点上方,可查看气象台名称。

然后点击查看天气观测和预报。

如需切换地图:点击带黑十字的绿色按钮放大地图;点击带横线的绿色按钮缩小地图;或者点击绿色箭头查看邻近地区的地图。


METAR-TAF: